Time;durP1;ratioP1;P1;durP2;ratioP2;P2;SDS_P1;SDS_P2;PMS_P1;PMS_P2;Temp;Humidity;BMP_temperature;BMP_pressure;BME280_temperature;BME280_humidity;BME280_pressure;Samples;Min_cycle;Max_cycle;Signal;HPM_P1;HPM_P2
2022/12/30 00:00:27;;;;;;;13.00;9.53;;;;;;;;;;5045431;28;20186;-80
2022/12/30 00:02:53;;;;;;;12.77;9.33;;;;;;;;;;5049136;28;20170;-80
2022/12/30 00:05:19;;;;;;;12.33;9.13;;;;;;;;;;5047497;28;20174;-80
2022/12/30 00:07:45;;;;;;;13.87;9.47;;;;;;;;;;5046596;28;20708;-80
2022/12/30 00:10:11;;;;;;;13.83;10.60;;;;;;;;;;5047273;28;20202;-80
2022/12/30 00:34:48;;;;;;;14.50;9.80;;;;;;;;;;5047140;28;20556;-80
2022/12/30 00:37:14;;;;;;;15.13;10.27;;;;;;;;;;5047063;28;20178;-81
2022/12/30 00:39:40;;;;;;;13.57;9.20;;;;;;;;;;5049244;28;20190;-80
2022/12/30 00:44:50;;;;;;;13.83;10.03;;;;;;;;;;5054381;28;20189;-81
2022/12/30 00:47:16;;;;;;;14.43;9.53;;;;;;;;;;5046068;28;20185;-80
2022/12/30 00:57:56;;;;;;;15.97;10.50;;;;;;;;;;5051810;28;20188;-79
2022/12/30 01:00:22;;;;;;;12.80;9.33;;;;;;;;;;5049607;28;20186;-81
2022/12/30 01:02:48;;;;;;;14.73;10.03;;;;;;;;;;5053765;28;20696;-80
2022/12/30 01:05:14;;;;;;;14.50;9.80;;;;;;;;;;5054481;28;20202;-80
2022/12/30 01:07:40;;;;;;;13.70;9.57;;;;;;;;;;5044333;28;20186;-80
2022/12/30 01:10:06;;;;;;;14.53;9.83;;;;;;;;;;5050809;28;20283;-78
2022/12/30 01:12:32;;;;;;;11.40;9.07;;;;;;;;;;5050140;28;20182;-80
2022/12/30 01:14:58;;;;;;;12.87;9.53;;;;;;;;;;5052697;28;20170;-81
2022/12/30 01:17:30;;;;;;;14.20;10.80;;;;;;;;;;5050216;28;20178;-81
2022/12/30 01:19:56;;;;;;;14.67;10.83;;;;;;;;;;5040527;28;20599;-79
2022/12/30 01:22:22;;;;;;;15.63;10.63;;;;;;;;;;5057588;28;20182;-78
2022/12/30 01:24:48;;;;;;;15.60;10.17;;;;;;;;;;5049293;28;20214;-79
2022/12/30 01:27:14;;;;;;;14.73;9.87;;;;;;;;;;5049905;28;20184;-79
2022/12/30 01:29:41;;;;;;;12.93;9.83;;;;;;;;;;5036903;28;20222;-79
2022/12/30 01:32:12;;;;;;;16.77;10.77;;;;;;;;;;5053200;28;20190;-79
2022/12/30 01:34:38;;;;;;;11.97;9.10;;;;;;;;;;5056334;28;20255;-79
2022/12/30 01:37:05;;;;;;;13.97;9.50;;;;;;;;;;5050233;28;20200;-79
2022/12/30 01:39:31;;;;;;;15.30;9.70;;;;;;;;;;5049424;28;20189;-79
2022/12/30 01:41:57;;;;;;;13.27;10.17;;;;;;;;;;5053846;28;20212;-79
2022/12/30 01:44:50;;;;;;;13.03;9.77;;;;;;;;;;5044817;28;20200;-78
2022/12/30 01:47:29;;;;;;;12.20;9.90;;;;;;;;;;5048337;28;20197;-79
2022/12/30 01:49:58;;;;;;;13.53;10.30;;;;;;;;;;5048322;28;20223;-79
2022/12/30 01:52:25;;;;;;;13.40;9.97;;;;;;;;;;5044715;28;20239;-79
2022/12/30 01:54:51;;;;;;;13.30;10.00;;;;;;;;;;5049225;28;20185;-78
2022/12/30 01:57:19;;;;;;;12.83;10.13;;;;;;;;;;5050676;28;20182;-79
2022/12/30 01:59:46;;;;;;;13.23;10.23;;;;;;;;;;5053157;28;20185;-79
2022/12/30 02:02:12;;;;;;;14.00;10.80;;;;;;;;;;5050349;28;20272;-80
2022/12/30 02:04:38;;;;;;;15.20;10.80;;;;;;;;;;5044496;28;20193;-79
2022/12/30 02:07:17;;;;;;;15.23;11.07;;;;;;;;;;5046173;28;20323;-79
2022/12/30 02:09:43;;;;;;;15.43;10.50;;;;;;;;;;5032979;28;20221;-79
2022/12/30 02:12:11;;;;;;;15.53;11.47;;;;;;;;;;5051487;28;20626;-79
2022/12/30 02:14:37;;;;;;;15.43;10.67;;;;;;;;;;5036224;28;20339;-79
2022/12/30 02:17:06;;;;;;;16.10;10.70;;;;;;;;;;5052394;28;20226;-79
2022/12/30 02:19:32;;;;;;;17.00;11.70;;;;;;;;;;5040844;28;20678;-79
2022/12/30 02:22:02;;;;;;;17.80;12.13;;;;;;;;;;5048620;28;20217;-79
2022/12/30 02:24:29;;;;;;;15.00;10.50;;;;;;;;;;5048275;28;20198;-79
2022/12/30 02:27:07;;;;;;;13.83;10.80;;;;;;;;;;5052935;28;20182;-79
2022/12/30 02:29:52;;;;;;;14.23;10.77;;;;;;;;;;5045049;28;20221;-79
2022/12/30 02:32:33;;;;;;;13.90;11.37;;;;;;;;;;5080502;28;20269;-78
2022/12/30 02:35:16;;;;;;;14.47;11.70;;;;;;;;;;5047272;28;20208;-78
2022/12/30 02:38:05;;;;;;;18.90;11.03;;;;;;;;;;5043736;28;20204;-79
2022/12/30 02:44:36;;;;;;;15.00;11.20;;;;;;;;;;5047715;28;20174;-78
2022/12/30 02:46:04;;;;;;;17.23;11.60;;;;;;;;;;5049080;28;20538;-80
2022/12/30 02:48:32;;;;;;;15.93;11.73;;;;;;;;;;5047671;28;20187;-79
2022/12/30 02:53:43;;;;;;;15.07;11.30;;;;;;;;;;5049696;28;20184;-78
2022/12/30 02:56:09;;;;;;;14.73;11.33;;;;;;;;;;5038647;28;20281;-79
2022/12/30 02:58:37;;;;;;;14.30;11.30;;;;;;;;;;5053795;28;20658;-79
2022/12/30 03:04:02;;;;;;;14.67;11.53;;;;;;;;;;5034202;28;20728;-78
2022/12/30 03:06:28;;;;;;;17.47;11.97;;;;;;;;;;5047668;28;20272;-79
2022/12/30 03:09:03;;;;;;;15.50;11.23;;;;;;;;;;5050835;28;20252;-79
2022/12/30 03:11:34;;;;;;;16.97;11.43;;;;;;;;;;5039282;28;20225;-80
2022/12/30 03:14:10;;;;;;;17.00;11.30;;;;;;;;;;5042535;28;20775;-79
2022/12/30 03:16:39;;;;;;;15.20;12.00;;;;;;;;;;5047674;28;20169;-80
2022/12/30 03:19:15;;;;;;;15.87;11.83;;;;;;;;;;5046830;28;20181;-79
2022/12/30 03:21:41;;;;;;;14.70;10.97;;;;;;;;;;5049630;28;20178;-79
2022/12/30 03:27:05;;;;;;;17.83;12.60;;;;;;;;;;5050707;28;20315;-79
2022/12/30 03:29:47;;;;;;;18.50;11.70;;;;;;;;;;5034959;28;20225;-79
2022/12/30 03:32:14;;;;;;;16.90;12.07;;;;;;;;;;5056514;28;20189;-79
2022/12/30 03:34:41;;;;;;;14.27;10.87;;;;;;;;;;5046203;28;20265;-79
2022/12/30 03:37:10;;;;;;;16.67;11.63;;;;;;;;;;5045555;28;20182;-78
2022/12/30 03:39:45;;;;;;;17.73;12.37;;;;;;;;;;5048762;28;20723;-78
2022/12/30 03:42:11;;;;;;;16.37;11.00;;;;;;;;;;5046125;28;20264;-79
2022/12/30 03:44:39;;;;;;;17.13;11.67;;;;;;;;;;5081473;28;20181;-78
2022/12/30 03:47:10;;;;;;;15.37;11.47;;;;;;;;;;5043617;28;20200;-78
2022/12/30 03:49:38;;;;;;;15.73;11.90;;;;;;;;;;5047107;28;20676;-79
2022/12/30 03:52:04;;;;;;;16.77;12.70;;;;;;;;;;5046062;28;20256;-78
2022/12/30 03:54:30;;;;;;;15.87;11.60;;;;;;;;;;5049235;28;20178;-79
2022/12/30 03:56:56;;;;;;;15.47;11.20;;;;;;;;;;5049311;28;20657;-79
2022/12/30 03:59:22;;;;;;;16.53;12.03;;;;;;;;;;5047811;28;20181;-79
2022/12/30 04:01:48;;;;;;;16.10;10.73;;;;;;;;;;5043632;28;20272;-79
2022/12/30 04:04:14;;;;;;;16.40;11.47;;;;;;;;;;5044662;28;20647;-79
2022/12/30 04:06:40;;;;;;;17.17;11.70;;;;;;;;;;5063207;28;20213;-78
2022/12/30 04:09:05;;;;;;;17.57;11.57;;;;;;;;;;5051300;28;20658;-78
2022/12/30 04:11:32;;;;;;;18.17;11.30;;;;;;;;;;5051389;28;20182;-79
2022/12/30 04:13:58;;;;;;;16.00;12.07;;;;;;;;;;5044456;28;20224;-79
2022/12/30 04:16:23;;;;;;;15.40;11.70;;;;;;;;;;5049516;28;20185;-79
2022/12/30 04:18:49;;;;;;;15.93;12.07;;;;;;;;;;5052609;28;20182;-79
2022/12/30 04:21:15;;;;;;;16.53;11.87;;;;;;;;;;5054611;28;20588;-78
2022/12/30 04:23:41;;;;;;;14.87;10.60;;;;;;;;;;5049611;28;20170;-79
2022/12/30 04:26:08;;;;;;;16.77;11.00;;;;;;;;;;5049355;28;20559;-79
2022/12/30 04:28:34;;;;;;;16.80;11.50;;;;;;;;;;5050266;28;20178;-79
2022/12/30 04:31:00;;;;;;;12.47;10.50;;;;;;;;;;5048802;28;20309;-79
2022/12/30 04:33:26;;;;;;;16.40;11.27;;;;;;;;;;5052887;28;20178;-79
2022/12/30 04:35:52;;;;;;;16.30;10.70;;;;;;;;;;5053181;28;20181;-79
2022/12/30 04:38:18;;;;;;;15.63;10.80;;;;;;;;;;5046589;28;20634;-78
2022/12/30 04:40:44;;;;;;;16.33;10.83;;;;;;;;;;5046118;28;20189;-79
2022/12/30 04:43:10;;;;;;;15.43;11.23;;;;;;;;;;5049433;28;20193;-79
2022/12/30 04:45:36;;;;;;;16.27;10.83;;;;;;;;;;5051445;28;20696;-78
2022/12/30 04:48:02;;;;;;;14.67;10.83;;;;;;;;;;5052836;28;20578;-79
2022/12/30 04:50:28;;;;;;;17.50;11.40;;;;;;;;;;5048732;28;20217;-79
2022/12/30 04:52:54;;;;;;;14.57;10.70;;;;;;;;;;5045800;28;20248;-79
2022/12/30 04:55:20;;;;;;;16.30;10.97;;;;;;;;;;5052289;28;20203;-78
2022/12/30 04:57:46;;;;;;;14.30;10.30;;;;;;;;;;5050553;28;20182;-79
2022/12/30 05:00:12;;;;;;;13.20;9.97;;;;;;;;;;5054147;28;20208;-79
2022/12/30 05:02:38;;;;;;;18.20;10.70;;;;;;;;;;5050410;28;20642;-78
2022/12/30 05:05:04;;;;;;;18.27;10.73;;;;;;;;;;5046100;28;20182;-79
2022/12/30 05:07:30;;;;;;;14.73;11.30;;;;;;;;;;5050755;28;20294;-78
2022/12/30 05:09:56;;;;;;;17.03;10.83;;;;;;;;;;5050892;28;20218;-79
2022/12/30 05:12:22;;;;;;;16.07;11.27;;;;;;;;;;5052507;28;20240;-78
2022/12/30 05:14:48;;;;;;;12.57;9.87;;;;;;;;;;5037221;28;20210;-78
2022/12/30 05:17:14;;;;;;;15.17;11.33;;;;;;;;;;5056544;28;20196;-79
2022/12/30 05:19:40;;;;;;;13.20;10.70;;;;;;;;;;5055247;28;20194;-79
2022/12/30 05:22:06;;;;;;;15.20;10.77;;;;;;;;;;5048274;28;20270;-79
2022/12/30 05:27:17;;;;;;;14.43;9.60;;;;;;;;;;5052908;28;20704;-78
2022/12/30 05:29:43;;;;;;;15.80;10.70;;;;;;;;;;5047974;28;20224;-79
2022/12/30 05:32:08;;;;;;;13.77;10.30;;;;;;;;;;5048129;28;20188;-79
2022/12/30 05:34:34;;;;;;;17.10;10.70;;;;;;;;;;5047201;28;20194;-79
2022/12/30 05:37:00;;;;;;;14.73;10.43;;;;;;;;;;5049577;28;20189;-78
2022/12/30 05:39:26;;;;;;;16.20;10.80;;;;;;;;;;5045580;28;20735;-79
2022/12/30 05:41:52;;;;;;;14.33;10.80;;;;;;;;;;5061462;28;20201;-79
2022/12/30 05:44:18;;;;;;;14.57;10.60;;;;;;;;;;5044240;28;20258;-79
2022/12/30 05:46:44;;;;;;;15.20;10.03;;;;;;;;;;5044238;28;20341;-78
2022/12/30 05:49:10;;;;;;;14.33;9.77;;;;;;;;;;5049724;28;20189;-80
2022/12/30 05:51:36;;;;;;;14.10;10.83;;;;;;;;;;5050363;28;20533;-79
2022/12/30 05:54:03;;;;;;;17.03;10.80;;;;;;;;;;5034296;28;20268;-78
2022/12/30 05:56:29;;;;;;;13.63;10.03;;;;;;;;;;5046110;28;20178;-78
2022/12/30 05:58:55;;;;;;;13.33;10.83;;;;;;;;;;5046532;28;20192;-78
2022/12/30 06:01:21;;;;;;;18.47;10.63;;;;;;;;;;5047413;28;20182;-79
2022/12/30 06:03:47;;;;;;;16.40;11.20;;;;;;;;;;5046253;28;20174;-79
2022/12/30 06:06:13;;;;;;;14.73;10.43;;;;;;;;;;5048302;28;20257;-79
2022/12/30 06:08:39;;;;;;;14.20;10.17;;;;;;;;;;5046561;28;20193;-79
2022/12/30 06:11:06;;;;;;;18.90;10.20;;;;;;;;;;5046220;28;20213;-79
2022/12/30 06:13:32;;;;;;;15.30;10.30;;;;;;;;;;5045847;28;20537;-79
2022/12/30 06:15:58;;;;;;;13.73;10.57;;;;;;;;;;5046439;28;20228;-78
2022/12/30 06:18:25;;;;;;;14.30;9.87;;;;;;;;;;5047447;28;20181;-78
2022/12/30 06:20:51;;;;;;;12.20;9.87;;;;;;;;;;5045678;28;20285;-79
2022/12/30 06:23:17;;;;;;;10.80;9.53;;;;;;;;;;5047566;28;20227;-79
2022/12/30 06:25:43;;;;;;;14.03;10.47;;;;;;;;;;5047652;28;20596;-79
2022/12/30 06:28:09;;;;;;;13.07;9.80;;;;;;;;;;5046816;28;20196;-79
2022/12/30 06:30:35;;;;;;;12.93;9.97;;;;;;;;;;5046856;28;20582;-79
2022/12/30 06:33:01;;;;;;;12.00;9.73;;;;;;;;;;5047489;28;20174;-78
2022/12/30 06:35:27;;;;;;;14.47;10.47;;;;;;;;;;5045337;28;20285;-79
2022/12/30 06:37:53;;;;;;;14.07;9.77;;;;;;;;;;5046763;28;20189;-79
2022/12/30 06:40:20;;;;;;;13.17;8.80;;;;;;;;;;5046950;28;20748;-79
2022/12/30 06:42:46;;;;;;;13.03;9.60;;;;;;;;;;5046146;28;20177;-79
2022/12/30 06:45:12;;;;;;;15.50;10.43;;;;;;;;;;5048867;28;20268;-79
2022/12/30 06:47:38;;;;;;;13.43;9.57;;;;;;;;;;5045380;28;20274;-79
2022/12/30 06:50:04;;;;;;;10.63;9.00;;;;;;;;;;5044158;28;20268;-79
2022/12/30 06:52:30;;;;;;;15.10;9.67;;;;;;;;;;5045662;28;20189;-79
2022/12/30 06:54:56;;;;;;;13.03;9.43;;;;;;;;;;5045497;28;20426;-80
2022/12/30 06:57:22;;;;;;;14.37;9.60;;;;;;;;;;5047552;28;20192;-79
2022/12/30 06:59:48;;;;;;;15.27;10.50;;;;;;;;;;5044921;28;20189;-79
2022/12/30 07:02:15;;;;;;;16.63;9.63;;;;;;;;;;5044725;28;20269;-79
2022/12/30 07:04:41;;;;;;;11.27;9.00;;;;;;;;;;5046640;28;20650;-80
2022/12/30 07:07:07;;;;;;;13.43;9.67;;;;;;;;;;5045684;28;20230;-79
2022/12/30 07:09:33;;;;;;;12.73;9.73;;;;;;;;;;5047770;28;20585;-79
2022/12/30 07:11:58;;;;;;;10.80;9.27;;;;;;;;;;5047200;28;20193;-80
2022/12/30 07:14:24;;;;;;;13.93;9.60;;;;;;;;;;5045753;28;20196;-80
2022/12/30 07:16:50;;;;;;;13.47;9.30;;;;;;;;;;5044632;28;20178;-79
2022/12/30 07:19:16;;;;;;;14.87;9.27;;;;;;;;;;5043536;28;20197;-79
2022/12/30 07:21:42;;;;;;;13.30;9.43;;;;;;;;;;5046857;28;20173;-79
2022/12/30 07:24:09;;;;;;;14.23;10.67;;;;;;;;;;5045478;28;20181;-79
2022/12/30 07:26:34;;;;;;;12.00;9.30;;;;;;;;;;5045508;28;20205;-79
2022/12/30 07:29:00;;;;;;;12.57;9.43;;;;;;;;;;5043540;28;20185;-79
2022/12/30 07:31:27;;;;;;;11.10;9.03;;;;;;;;;;5044759;28;20193;-79
2022/12/30 07:33:53;;;;;;;14.03;10.07;;;;;;;;;;5046868;28;20216;-79
2022/12/30 07:36:19;;;;;;;14.73;9.43;;;;;;;;;;5047597;28;20181;-79
2022/12/30 07:38:45;;;;;;;10.33;8.10;;;;;;;;;;5043528;28;20209;-79
2022/12/30 07:41:12;;;;;;;15.37;10.10;;;;;;;;;;5045957;28;20732;-79
2022/12/30 07:43:39;;;;;;;12.37;9.33;;;;;;;;;;5045971;28;20231;-79
2022/12/30 07:46:09;;;;;;;16.33;10.20;;;;;;;;;;5047917;28;20647;-80
2022/12/30 07:48:37;;;;;;;13.13;9.07;;;;;;;;;;5049807;28;20234;-79
2022/12/30 07:51:11;;;;;;;15.53;9.90;;;;;;;;;;5047743;28;20228;-79
2022/12/30 07:53:37;;;;;;;12.70;8.50;;;;;;;;;;5049804;28;20720;-79
2022/12/30 07:56:05;;;;;;;14.23;9.10;;;;;;;;;;5048758;28;20197;-79
2022/12/30 07:58:31;;;;;;;15.27;8.60;;;;;;;;;;5047629;28;20643;-78
2022/12/30 08:00:58;;;;;;;14.40;8.73;;;;;;;;;;5050348;28;20185;-79
2022/12/30 08:03:24;;;;;;;12.03;8.20;;;;;;;;;;5050784;28;20173;-78
2022/12/30 08:05:50;;;;;;;10.43;8.10;;;;;;;;;;5048920;28;20538;-79
2022/12/30 08:08:16;;;;;;;13.30;8.07;;;;;;;;;;5048454;28;20185;-79
2022/12/30 08:10:42;;;;;;;12.53;7.83;;;;;;;;;;5048197;28;20337;-79
2022/12/30 08:13:08;;;;;;;11.37;7.87;;;;;;;;;;5049610;28;20182;-79
2022/12/30 08:15:34;;;;;;;12.20;8.07;;;;;;;;;;5050160;28;20185;-79
2022/12/30 08:18:00;;;;;;;10.87;8.70;;;;;;;;;;5047151;28;20250;-79
2022/12/30 08:20:26;;;;;;;10.73;8.17;;;;;;;;;;5048057;28;20185;-79
2022/12/30 08:22:52;;;;;;;15.07;7.90;;;;;;;;;;5049593;28;20186;-79
2022/12/30 08:25:18;;;;;;;13.40;9.00;;;;;;;;;;5052469;28;20547;-79
2022/12/30 08:27:44;;;;;;;14.20;9.73;;;;;;;;;;5052748;28;20178;-79
2022/12/30 08:30:11;;;;;;;18.60;9.60;;;;;;;;;;5048636;28;20260;-79
2022/12/30 08:32:37;;;;;;;12.97;8.90;;;;;;;;;;5050733;28;20198;-79
2022/12/30 08:35:03;;;;;;;14.60;8.73;;;;;;;;;;5051739;28;20272;-79
2022/12/30 08:37:29;;;;;;;15.23;8.63;;;;;;;;;;5050121;28;20231;-79
2022/12/30 08:39:55;;;;;;;14.73;8.83;;;;;;;;;;5053492;28;20646;-79
2022/12/30 08:42:21;;;;;;;14.57;8.90;;;;;;;;;;5052089;28;20227;-80
2022/12/30 08:44:47;;;;;;;13.13;7.97;;;;;;;;;;5049111;28;20186;-79
2022/12/30 08:47:13;;;;;;;13.43;8.20;;;;;;;;;;5048746;28;20181;-79
2022/12/30 08:49:39;;;;;;;12.33;8.10;;;;;;;;;;5049408;28;20766;-79
2022/12/30 08:52:05;;;;;;;13.73;8.13;;;;;;;;;;5033352;28;20192;-79
2022/12/30 08:54:31;;;;;;;14.53;8.43;;;;;;;;;;5050306;28;20173;-79
2022/12/30 08:56:57;;;;;;;12.87;8.77;;;;;;;;;;5047113;28;20638;-80
2022/12/30 08:59:23;;;;;;;14.13;8.70;;;;;;;;;;5042921;28;20205;-79
2022/12/30 09:01:49;;;;;;;13.07;8.20;;;;;;;;;;5046576;28;20735;-80
2022/12/30 09:04:17;;;;;;;15.00;8.60;;;;;;;;;;5046604;28;20182;-81
2022/12/30 09:06:43;;;;;;;13.00;8.57;;;;;;;;;;5051243;28;20170;-80
2022/12/30 09:09:10;;;;;;;13.53;8.30;;;;;;;;;;5048032;28;20277;-80
2022/12/30 09:11:38;;;;;;;13.00;8.90;;;;;;;;;;5047450;28;20194;-80
2022/12/30 09:14:05;;;;;;;14.90;8.87;;;;;;;;;;5046246;28;20178;-80
2022/12/30 09:16:32;;;;;;;15.27;7.97;;;;;;;;;;5045553;28;20192;-80
2022/12/30 09:18:58;;;;;;;15.33;8.33;;;;;;;;;;5050292;28;20193;-80
2022/12/30 09:21:24;;;;;;;14.00;7.70;;;;;;;;;;5065467;28;20235;-80
2022/12/30 09:23:50;;;;;;;12.23;7.50;;;;;;;;;;5047632;28;20182;-80
2022/12/30 09:26:18;;;;;;;14.57;8.60;;;;;;;;;;5048500;28;20188;-81
2022/12/30 09:28:44;;;;;;;13.93;7.43;;;;;;;;;;5047921;28;20212;-79
2022/12/30 09:31:10;;;;;;;12.83;7.03;;;;;;;;;;5046731;28;20229;-78
2022/12/30 09:33:36;;;;;;;14.67;7.60;;;;;;;;;;5050054;28;20186;-79
2022/12/30 09:36:02;;;;;;;11.40;6.70;;;;;;;;;;5047350;28;20181;-79
2022/12/30 09:38:28;;;;;;;12.20;6.73;;;;;;;;;;5046301;28;20639;-79
2022/12/30 09:41:01;;;;;;;10.33;6.23;;;;;;;;;;5047481;28;20186;-79
2022/12/30 09:43:45;;;;;;;12.00;6.20;;;;;;;;;;5046539;28;20227;-80
2022/12/30 09:46:18;;;;;;;11.93;5.90;;;;;;;;;;5048021;28;20180;-82
2022/12/30 09:48:46;;;;;;;11.07;5.97;;;;;;;;;;5066194;28;21036;-81
2022/12/30 09:51:17;;;;;;;9.47;5.70;;;;;;;;;;5047529;28;20213;-84
2022/12/30 09:53:43;;;;;;;11.27;6.27;;;;;;;;;;5046828;28;20177;-81
2022/12/30 09:56:42;;;;;;;12.10;5.67;;;;;;;;;;5047545;28;20177;-81
2022/12/30 09:59:20;;;;;;;7.60;5.63;;;;;;;;;;5028575;28;20252;-81
2022/12/30 10:01:48;;;;;;;12.93;6.23;;;;;;;;;;5029827;28;20642;-80
2022/12/30 10:04:16;;;;;;;12.93;5.57;;;;;;;;;;5042541;28;20669;-79
2022/12/30 10:07:02;;;;;;;10.50;5.40;;;;;;;;;;5045884;28;20224;-79
2022/12/30 10:09:28;;;;;;;10.37;5.13;;;;;;;;;;5027926;28;20255;-80
2022/12/30 10:12:03;;;;;;;11.90;5.70;;;;;;;;;;5046259;28;20239;-80
2022/12/30 10:14:45;;;;;;;11.13;5.07;;;;;;;;;;5027989;28;20740;-79
2022/12/30 10:17:29;;;;;;;10.93;4.87;;;;;;;;;;5030543;28;20185;-79
2022/12/30 10:20:13;;;;;;;8.10;5.07;;;;;;;;;;5030069;28;20185;-79
2022/12/30 10:22:50;;;;;;;10.13;4.47;;;;;;;;;;5029534;28;20217;-79
2022/12/30 10:25:34;;;;;;;10.10;5.10;;;;;;;;;;5028565;28;20178;-80
2022/12/30 10:28:02;;;;;;;6.80;4.53;;;;;;;;;;5047134;28;20633;-80
2022/12/30 10:30:34;;;;;;;9.73;5.03;;;;;;;;;;5028031;28;20272;-80
2022/12/30 10:33:03;;;;;;;13.03;5.63;;;;;;;;;;5029353;28;20212;-80
2022/12/30 10:35:32;;;;;;;14.07;4.67;;;;;;;;;;5041863;28;20353;-80
2022/12/30 10:38:09;;;;;;;11.87;4.73;;;;;;;;;;5046965;28;20247;-79
2022/12/30 10:40:42;;;;;;;9.27;4.90;;;;;;;;;;5046597;28;20224;-79
2022/12/30 10:43:14;;;;;;;10.77;4.37;;;;;;;;;;5047631;28;20688;-78
2022/12/30 10:45:46;;;;;;;9.63;4.50;;;;;;;;;;5063639;28;20990;-79
2022/12/30 10:48:21;;;;;;;8.97;4.13;;;;;;;;;;5047784;28;20197;-78
2022/12/30 10:50:48;;;;;;;8.30;4.70;;;;;;;;;;5045464;28;20213;-78
2022/12/30 10:53:22;;;;;;;8.37;4.23;;;;;;;;;;5043715;28;20190;-78
2022/12/30 10:55:49;;;;;;;7.70;4.50;;;;;;;;;;5045516;28;20185;-78
2022/12/30 10:58:24;;;;;;;8.53;4.33;;;;;;;;;;5046247;28;20734;-78
2022/12/30 11:00:50;;;;;;;9.93;4.27;;;;;;;;;;5043093;28;20173;-77
2022/12/30 11:03:31;;;;;;;9.20;4.40;;;;;;;;;;5045058;28;20185;-79
2022/12/30 11:05:59;;;;;;;10.43;3.83;;;;;;;;;;5046453;28;20213;-80
2022/12/30 11:08:26;;;;;;;13.80;4.73;;;;;;;;;;5045577;28;20189;-79
2022/12/30 11:10:58;;;;;;;8.13;3.90;;;;;;;;;;5046406;28;20220;-79
2022/12/30 11:16:09;;;;;;;9.60;4.17;;;;;;;;;;5047408;28;20247;-81
2022/12/30 11:18:35;;;;;;;10.40;4.40;;;;;;;;;;5045434;28;20197;-80
2022/12/30 11:21:02;;;;;;;8.83;3.77;;;;;;;;;;5044886;28;20186;-80
2022/12/30 11:23:32;;;;;;;10.07;3.90;;;;;;;;;;5047099;28;20186;-80
2022/12/30 11:26:02;;;;;;;10.20;4.37;;;;;;;;;;5044522;28;20179;-83
2022/12/30 11:28:42;;;;;;;9.60;4.03;;;;;;;;;;5046001;28;20200;-80
2022/12/30 11:31:14;;;;;;;13.33;4.67;;;;;;;;;;5047581;28;20589;-80
2022/12/30 11:33:50;;;;;;;10.00;3.50;;;;;;;;;;5045968;28;20323;-80
2022/12/30 11:36:21;;;;;;;8.67;3.77;;;;;;;;;;5043218;28;20605;-80
2022/12/30 11:38:50;;;;;;;10.63;3.63;;;;;;;;;;5044591;28;20577;-81
2022/12/30 11:41:16;;;;;;;9.57;3.93;;;;;;;;;;5043259;28;20184;-81
2022/12/30 11:43:46;;;;;;;10.47;4.00;;;;;;;;;;5044557;28;20217;-81
2022/12/30 11:46:18;;;;;;;10.27;3.90;;;;;;;;;;5046145;28;20169;-81
2022/12/30 11:48:44;;;;;;;8.30;3.83;;;;;;;;;;5046767;28;20177;-81
2022/12/30 11:51:16;;;;;;;9.53;4.00;;;;;;;;;;5043750;28;20213;-80
2022/12/30 11:53:42;;;;;;;8.50;4.17;;;;;;;;;;5044642;28;20185;-80
2022/12/30 11:56:08;;;;;;;9.50;3.67;;;;;;;;;;5044882;28;20197;-80
2022/12/30 11:58:35;;;;;;;7.23;3.77;;;;;;;;;;5044947;28;20177;-81
2022/12/30 12:01:07;;;;;;;10.77;3.70;;;;;;;;;;5062615;28;20698;-81
2022/12/30 12:03:46;;;;;;;10.40;4.00;;;;;;;;;;5045512;28;20186;-80
2022/12/30 12:06:12;;;;;;;9.83;3.20;;;;;;;;;;5044837;28;20190;-79
2022/12/30 12:08:42;;;;;;;9.33;3.70;;;;;;;;;;5045818;28;20197;-80
2022/12/30 12:11:10;;;;;;;10.67;3.83;;;;;;;;;;5044140;28;20228;-80
2022/12/30 12:13:41;;;;;;;12.13;3.70;;;;;;;;;;5045615;28;20182;-81
2022/12/30 12:16:09;;;;;;;10.07;4.07;;;;;;;;;;5062950;28;20189;-81
2022/12/30 12:18:45;;;;;;;10.63;4.10;;;;;;;;;;5044358;28;20204;-80
2022/12/30 12:21:14;;;;;;;11.17;4.30;;;;;;;;;;5045703;28;20217;-80
2022/12/30 12:23:47;;;;;;;13.97;3.87;;;;;;;;;;5046802;28;20198;-79
2022/12/30 12:26:16;;;;;;;8.57;3.63;;;;;;;;;;5045901;28;20178;-79
2022/12/30 12:28:43;;;;;;;13.87;4.20;;;;;;;;;;5046466;28;20178;-80
2022/12/30 12:31:19;;;;;;;11.10;3.37;;;;;;;;;;5046813;28;20229;-78
2022/12/30 12:33:49;;;;;;;12.67;3.87;;;;;;;;;;5046673;28;20178;-78
2022/12/30 12:36:38;;;;;;;8.37;3.50;;;;;;;;;;5045095;28;20546;-77
2022/12/30 12:39:10;;;;;;;9.37;3.60;;;;;;;;;;5047870;28;20189;-79
2022/12/30 12:41:45;;;;;;;11.70;3.97;;;;;;;;;;5048396;28;20754;-78
2022/12/30 12:44:21;;;;;;;10.83;4.07;;;;;;;;;;5048012;28;20526;-77
2022/12/30 12:46:56;;;;;;;8.57;4.03;;;;;;;;;;5047422;28;20186;-79
2022/12/30 12:49:31;;;;;;;8.97;4.63;;;;;;;;;;5049637;28;20173;-76
2022/12/30 12:52:08;;;;;;;7.93;3.80;;;;;;;;;;5048672;28;20185;-76
2022/12/30 12:54:49;;;;;;;12.47;3.87;;;;;;;;;;5046191;28;20224;-79
2022/12/30 12:57:21;;;;;;;11.97;4.13;;;;;;;;;;5049241;28;20180;-79
2022/12/30 12:59:59;;;;;;;8.20;3.97;;;;;;;;;;5044238;28;20193;-77
2022/12/30 13:02:47;;;;;;;9.63;4.47;;;;;;;;;;5046484;28;20551;-77
2022/12/30 13:05:32;;;;;;;13.80;4.67;;;;;;;;;;5048021;28;20232;-78
2022/12/30 13:08:10;;;;;;;10.23;3.63;;;;;;;;;;5046185;28;20667;-78
2022/12/30 13:11:06;;;;;;;12.40;4.63;;;;;;;;;;5048617;28;20224;-76
2022/12/30 13:13:44;;;;;;;10.53;3.97;;;;;;;;;;5043561;28;20189;-76
2022/12/30 13:16:15;;;;;;;12.70;4.23;;;;;;;;;;5050672;28;20181;-78
2022/12/30 13:18:43;;;;;;;9.07;4.33;;;;;;;;;;5047248;28;20189;-79
2022/12/30 13:21:11;;;;;;;8.03;4.00;;;;;;;;;;5049348;28;20327;-77
2022/12/30 13:23:42;;;;;;;10.33;4.30;;;;;;;;;;5047235;28;20242;-79
2022/12/30 13:26:08;;;;;;;9.70;4.17;;;;;;;;;;5045690;28;20196;-77
2022/12/30 13:28:35;;;;;;;16.20;4.40;;;;;;;;;;5048227;28;20198;-77
2022/12/30 13:31:20;;;;;;;8.13;4.40;;;;;;;;;;5050072;28;20589;-77
2022/12/30 13:33:55;;;;;;;12.43;4.90;;;;;;;;;;5045916;28;20192;-78
2022/12/30 13:36:26;;;;;;;13.23;4.63;;;;;;;;;;5046695;28;20201;-77
2022/12/30 13:38:58;;;;;;;10.20;4.47;;;;;;;;;;5046863;28;20213;-78
2022/12/30 13:41:30;;;;;;;14.83;5.30;;;;;;;;;;5046919;28;20185;-77
2022/12/30 13:44:00;;;;;;;12.80;5.33;;;;;;;;;;5047859;28;20186;-79
2022/12/30 13:46:28;;;;;;;13.33;5.23;;;;;;;;;;5064850;28;20184;-79
2022/12/30 13:49:14;;;;;;;12.40;5.40;;;;;;;;;;5047286;28;20217;-78
2022/12/30 13:51:58;;;;;;;11.67;4.80;;;;;;;;;;5044050;28;21107;-79
2022/12/30 13:54:25;;;;;;;10.50;5.17;;;;;;;;;;5045170;28;20236;-79
2022/12/30 13:56:52;;;;;;;13.17;5.30;;;;;;;;;;5047347;28;20285;-78
2022/12/30 13:59:38;;;;;;;11.90;5.53;;;;;;;;;;5046158;28;20190;-78
2022/12/30 14:02:19;;;;;;;15.70;5.57;;;;;;;;;;5048026;28;20190;-77
2022/12/30 14:04:47;;;;;;;13.83;5.03;;;;;;;;;;5062848;28;20600;-79
2022/12/30 14:07:31;;;;;;;12.47;5.77;;;;;;;;;;5049703;28;20261;-78
2022/12/30 14:10:19;;;;;;;12.40;5.17;;;;;;;;;;5038154;28;20922;-78
2022/12/30 14:13:07;;;;;;;11.73;5.50;;;;;;;;;;5030660;28;20184;-80
2022/12/30 14:15:33;;;;;;;11.83;4.90;;;;;;;;;;5047784;28;20223;-78
2022/12/30 14:18:00;;;;;;;10.17;4.47;;;;;;;;;;5047181;28;20185;-78
2022/12/30 14:20:27;;;;;;;12.93;5.13;;;;;;;;;;5041953;28;20204;-79
2022/12/30 14:22:54;;;;;;;9.63;4.80;;;;;;;;;;5043423;28;20187;-78
2022/12/30 14:25:25;;;;;;;14.90;5.57;;;;;;;;;;5048826;28;20174;-79
2022/12/30 14:27:52;;;;;;;11.20;4.57;;;;;;;;;;5047501;28;20548;-78
2022/12/30 14:30:18;;;;;;;15.43;5.20;;;;;;;;;;5050125;28;20247;-79
2022/12/30 14:32:44;;;;;;;10.70;4.80;;;;;;;;;;5046842;28;20669;-78
2022/12/30 14:35:16;;;;;;;12.00;5.03;;;;;;;;;;5059052;28;20213;-80
2022/12/30 14:37:42;;;;;;;11.67;4.73;;;;;;;;;;5051838;28;20185;-78
2022/12/30 14:40:24;;;;;;;13.87;5.37;;;;;;;;;;5049432;28;20181;-78
2022/12/30 14:42:54;;;;;;;12.10;5.23;;;;;;;;;;5047378;28;20672;-77
2022/12/30 14:45:24;;;;;;;12.45;5.78;;;;;;;;;;5046816;28;20762;-75
2022/12/30 14:47:51;;;;;;;12.93;6.70;;;;;;;;;;5049083;28;20239;-78
2022/12/30 14:50:17;;;;;;;11.30;5.00;;;;;;;;;;5047790;28;20213;-76
2022/12/30 14:52:58;;;;;;;12.47;5.63;;;;;;;;;;5049724;28;20174;-76
2022/12/30 14:55:25;;;;;;;12.40;5.90;;;;;;;;;;5049756;28;20256;-77
2022/12/30 14:57:59;;;;;;;16.00;6.63;;;;;;;;;;5046691;28;20196;-76
2022/12/30 15:00:30;;;;;;;14.90;6.37;;;;;;;;;;5050584;28;20268;-77
2022/12/30 15:02:57;;;;;;;14.10;6.80;;;;;;;;;;5026725;28;20182;-78
2022/12/30 15:05:30;;;;;;;17.60;7.40;;;;;;;;;;5023898;28;20840;-79
2022/12/30 15:08:04;;;;;;;13.53;6.37;;;;;;;;;;5030423;28;20178;-78
2022/12/30 15:10:35;;;;;;;17.10;7.00;;;;;;;;;;5016320;28;20205;-78
2022/12/30 15:13:17;;;;;;;15.43;7.53;;;;;;;;;;5047319;28;20238;-78
2022/12/30 15:15:46;;;;;;;14.07;7.30;;;;;;;;;;5046667;28;20181;-78
2022/12/30 15:18:25;;;;;;;16.27;7.43;;;;;;;;;;5047456;28;20186;-77
2022/12/30 15:20:52;;;;;;;12.87;6.87;;;;;;;;;;5046802;28;20642;-77
2022/12/30 15:23:18;;;;;;;12.30;7.30;;;;;;;;;;5046389;28;20225;-78
2022/12/30 15:25:56;;;;;;;17.53;7.80;;;;;;;;;;5050575;28;20174;-79
2022/12/30 15:28:22;;;;;;;20.97;7.63;;;;;;;;;;5063319;28;20699;-77